sensor_id;sensor_type;location;lat;lon;timestamp;temperature;humidity
35690;DHT22;26977;44.830;-0.674;2022-08-20T00:00:22;17.80;99.90
35690;DHT22;26977;44.830;-0.674;2022-08-20T00:02:51;17.80;99.90
35690;DHT22;26977;44.830;-0.674;2022-08-20T00:05:29;17.70;99.90
35690;DHT22;26977;44.830;-0.674;2022-08-20T00:07:56;17.60;99.90
35690;DHT22;26977;44.830;-0.674;2022-08-20T00:10:24;17.70;99.90
35690;DHT22;26977;44.830;-0.674;2022-08-20T00:12:50;17.70;99.90
35690;DHT22;26977;44.830;-0.674;2022-08-20T00:15:18;17.70;99.90
35690;DHT22;26977;44.830;-0.674;2022-08-20T00:17:49;17.70;99.90
35690;DHT22;26977;44.830;-0.674;2022-08-20T00:20:15;17.70;99.90
35690;DHT22;26977;44.830;-0.674;2022-08-20T00:22:41;17.60;99.90
35690;DHT22;26977;44.830;-0.674;2022-08-20T00:25:07;17.60;99.90
35690;DHT22;26977;44.830;-0.674;2022-08-20T00:27:34;17.60;99.90
35690;DHT22;26977;44.830;-0.674;2022-08-20T00:30:00;17.60;99.90
35690;DHT22;26977;44.830;-0.674;2022-08-20T00:32:25;17.50;99.90
35690;DHT22;26977;44.830;-0.674;2022-08-20T00:34:51;17.50;99.90
35690;DHT22;26977;44.830;-0.674;2022-08-20T00:37:17;17.50;99.90
35690;DHT22;26977;44.830;-0.674;2022-08-20T00:39:42;17.60;99.90
35690;DHT22;26977;44.830;-0.674;2022-08-20T00:42:08;17.50;99.90
35690;DHT22;26977;44.830;-0.674;2022-08-20T00:44:34;17.40;99.90
35690;DHT22;26977;44.830;-0.674;2022-08-20T00:47:00;17.30;99.90
35690;DHT22;26977;44.830;-0.674;2022-08-20T00:49:29;17.40;99.90
35690;DHT22;26977;44.830;-0.674;2022-08-20T00:52:03;17.40;99.90
35690;DHT22;26977;44.830;-0.674;2022-08-20T00:54:35;17.30;99.90
35690;DHT22;26977;44.830;-0.674;2022-08-20T00:57:51;17.30;99.90
35690;DHT22;26977;44.830;-0.674;2022-08-20T01:00:24;17.20;99.90
35690;DHT22;26977;44.830;-0.674;2022-08-20T01:02:50;17.20;99.90
35690;DHT22;26977;44.830;-0.674;2022-08-20T01:05:16;17.30;99.90
35690;DHT22;26977;44.830;-0.674;2022-08-20T01:07:43;17.40;99.90
35690;DHT22;26977;44.830;-0.674;2022-08-20T01:10:17;17.30;99.90
35690;DHT22;26977;44.830;-0.674;2022-08-20T01:12:45;17.30;99.90
35690;DHT22;26977;44.830;-0.674;2022-08-20T01:15:15;17.20;99.90
35690;DHT22;26977;44.830;-0.674;2022-08-20T01:17:45;17.20;99.90
35690;DHT22;26977;44.830;-0.674;2022-08-20T01:20:25;17.10;99.90
35690;DHT22;26977;44.830;-0.674;2022-08-20T01:23:21;17.10;99.90
35690;DHT22;26977;44.830;-0.674;2022-08-20T01:25:55;17.00;99.90
35690;DHT22;26977;44.830;-0.674;2022-08-20T01:28:30;17.10;99.90
35690;DHT22;26977;44.830;-0.674;2022-08-20T01:30:57;17.10;99.90
35690;DHT22;26977;44.830;-0.674;2022-08-20T01:33:23;17.20;99.90
35690;DHT22;26977;44.830;-0.674;2022-08-20T01:35:50;17.20;99.90
35690;DHT22;26977;44.830;-0.674;2022-08-20T01:38:16;17.20;99.90
35690;DHT22;26977;44.830;-0.674;2022-08-20T01:43:36;17.10;99.90
35690;DHT22;26977;44.830;-0.674;2022-08-20T01:46:03;17.10;99.90
35690;DHT22;26977;44.830;-0.674;2022-08-20T01:48:28;17.10;99.90
35690;DHT22;26977;44.830;-0.674;2022-08-20T01:51:06;17.10;99.90
35690;DHT22;26977;44.830;-0.674;2022-08-20T01:53:36;17.10;99.90
35690;DHT22;26977;44.830;-0.674;2022-08-20T01:56:08;17.00;99.90
35690;DHT22;26977;44.830;-0.674;2022-08-20T01:58:37;17.00;99.90
35690;DHT22;26977;44.830;-0.674;2022-08-20T02:01:04;17.10;99.90
35690;DHT22;26977;44.830;-0.674;2022-08-20T02:03:30;17.20;99.90
35690;DHT22;26977;44.830;-0.674;2022-08-20T02:05:59;17.30;99.90
35690;DHT22;26977;44.830;-0.674;2022-08-20T02:08:25;17.30;99.90
35690;DHT22;26977;44.830;-0.674;2022-08-20T02:10:51;17.40;99.90
35690;DHT22;26977;44.830;-0.674;2022-08-20T02:13:17;17.50;99.90
35690;DHT22;26977;44.830;-0.674;2022-08-20T02:15:43;17.60;99.90
35690;DHT22;26977;44.830;-0.674;2022-08-20T02:18:12;17.70;99.90
35690;DHT22;26977;44.830;-0.674;2022-08-20T02:20:39;17.90;99.90
35690;DHT22;26977;44.830;-0.674;2022-08-20T02:23:06;18.00;99.90
35690;DHT22;26977;44.830;-0.674;2022-08-20T02:25:34;18.10;99.90
35690;DHT22;26977;44.830;-0.674;2022-08-20T02:28:10;18.10;99.90
35690;DHT22;26977;44.830;-0.674;2022-08-20T02:30:40;18.20;99.90
35690;DHT22;26977;44.830;-0.674;2022-08-20T02:33:09;18.20;99.90
35690;DHT22;26977;44.830;-0.674;2022-08-20T02:35:37;18.20;99.90
35690;DHT22;26977;44.830;-0.674;2022-08-20T02:38:03;18.30;99.90
35690;DHT22;26977;44.830;-0.674;2022-08-20T02:40:30;18.40;99.90
35690;DHT22;26977;44.830;-0.674;2022-08-20T02:42:59;18.40;99.90
35690;DHT22;26977;44.830;-0.674;2022-08-20T02:45:28;18.40;99.90
35690;DHT22;26977;44.830;-0.674;2022-08-20T02:47:54;18.40;99.90
35690;DHT22;26977;44.830;-0.674;2022-08-20T02:50:22;18.40;99.90
35690;DHT22;26977;44.830;-0.674;2022-08-20T02:52:49;18.60;99.90
35690;DHT22;26977;44.830;-0.674;2022-08-20T02:55:15;18.60;99.90
35690;DHT22;26977;44.830;-0.674;2022-08-20T02:57:42;18.60;99.90
35690;DHT22;26977;44.830;-0.674;2022-08-20T03:00:12;18.70;99.90
35690;DHT22;26977;44.830;-0.674;2022-08-20T03:02:39;18.70;99.90
35690;DHT22;26977;44.830;-0.674;2022-08-20T03:05:05;18.70;99.90
35690;DHT22;26977;44.830;-0.674;2022-08-20T03:07:31;18.70;99.90
35690;DHT22;26977;44.830;-0.674;2022-08-20T03:10:04;18.80;99.90
35690;DHT22;26977;44.830;-0.674;2022-08-20T03:12:30;18.80;99.90
35690;DHT22;26977;44.830;-0.674;2022-08-20T03:14:55;18.90;99.90
35690;DHT22;26977;44.830;-0.674;2022-08-20T03:17:21;18.90;99.90
35690;DHT22;26977;44.830;-0.674;2022-08-20T03:19:47;19.00;99.90
35690;DHT22;26977;44.830;-0.674;2022-08-20T03:22:12;19.00;99.90
35690;DHT22;26977;44.830;-0.674;2022-08-20T03:24:38;19.00;99.90
35690;DHT22;26977;44.830;-0.674;2022-08-20T03:27:04;19.00;99.90
35690;DHT22;26977;44.830;-0.674;2022-08-20T03:29:30;19.00;99.90
35690;DHT22;26977;44.830;-0.674;2022-08-20T03:31:55;19.00;99.90
35690;DHT22;26977;44.830;-0.674;2022-08-20T03:34:22;19.00;99.90
35690;DHT22;26977;44.830;-0.674;2022-08-20T03:36:47;19.00;99.90
35690;DHT22;26977;44.830;-0.674;2022-08-20T03:39:13;19.00;99.90
35690;DHT22;26977;44.830;-0.674;2022-08-20T03:41:39;19.00;99.90
35690;DHT22;26977;44.830;-0.674;2022-08-20T03:44:05;19.10;99.90
35690;DHT22;26977;44.830;-0.674;2022-08-20T03:46:31;19.10;99.90
35690;DHT22;26977;44.830;-0.674;2022-08-20T03:48:57;19.00;99.90
35690;DHT22;26977;44.830;-0.674;2022-08-20T03:51:23;19.00;99.90
35690;DHT22;26977;44.830;-0.674;2022-08-20T03:53:49;19.10;99.90
35690;DHT22;26977;44.830;-0.674;2022-08-20T03:56:14;19.10;99.90
35690;DHT22;26977;44.830;-0.674;2022-08-20T03:58:42;19.10;99.90
35690;DHT22;26977;44.830;-0.674;2022-08-20T04:01:07;19.10;99.90
35690;DHT22;26977;44.830;-0.674;2022-08-20T04:03:33;19.10;99.90
35690;DHT22;26977;44.830;-0.674;2022-08-20T04:05:59;19.10;99.90
35690;DHT22;26977;44.830;-0.674;2022-08-20T04:08:27;19.10;99.90
35690;DHT22;26977;44.830;-0.674;2022-08-20T04:10:54;19.10;99.90
35690;DHT22;26977;44.830;-0.674;2022-08-20T04:13:23;19.10;99.90
35690;DHT22;26977;44.830;-0.674;2022-08-20T04:15:50;19.10;99.90
35690;DHT22;26977;44.830;-0.674;2022-08-20T04:18:18;19.10;99.90
35690;DHT22;26977;44.830;-0.674;2022-08-20T04:20:46;19.10;99.90
35690;DHT22;26977;44.830;-0.674;2022-08-20T04:23:12;19.10;99.90
35690;DHT22;26977;44.830;-0.674;2022-08-20T04:25:39;19.10;99.90
35690;DHT22;26977;44.830;-0.674;2022-08-20T04:28:09;19.10;99.90
35690;DHT22;26977;44.830;-0.674;2022-08-20T04:30:35;19.00;99.90
35690;DHT22;26977;44.830;-0.674;2022-08-20T04:33:01;19.00;99.90
35690;DHT22;26977;44.830;-0.674;2022-08-20T04:35:27;19.00;99.90
35690;DHT22;26977;44.830;-0.674;2022-08-20T04:40:24;19.10;99.90
35690;DHT22;26977;44.830;-0.674;2022-08-20T04:43:08;19.10;99.90
35690;DHT22;26977;44.830;-0.674;2022-08-20T04:45:34;19.10;99.90
35690;DHT22;26977;44.830;-0.674;2022-08-20T04:48:04;19.10;99.90
35690;DHT22;26977;44.830;-0.674;2022-08-20T04:50:35;19.20;99.90
35690;DHT22;26977;44.830;-0.674;2022-08-20T04:53:07;19.20;99.90
35690;DHT22;26977;44.830;-0.674;2022-08-20T04:55:34;19.20;99.90
35690;DHT22;26977;44.830;-0.674;2022-08-20T04:58:12;19.20;99.90
35690;DHT22;26977;44.830;-0.674;2022-08-20T05:00:39;19.30;99.90
35690;DHT22;26977;44.830;-0.674;2022-08-20T05:03:05;19.40;99.90
35690;DHT22;26977;44.830;-0.674;2022-08-20T05:05:34;19.50;99.90
35690;DHT22;26977;44.830;-0.674;2022-08-20T05:08:00;19.50;99.90
35690;DHT22;26977;44.830;-0.674;2022-08-20T05:10:26;19.50;99.90
35690;DHT22;26977;44.830;-0.674;2022-08-20T05:12:52;19.60;99.90
35690;DHT22;26977;44.830;-0.674;2022-08-20T05:15:18;19.60;99.90
35690;DHT22;26977;44.830;-0.674;2022-08-20T05:17:44;19.60;99.90
35690;DHT22;26977;44.830;-0.674;2022-08-20T05:20:15;19.60;99.90
35690;DHT22;26977;44.830;-0.674;2022-08-20T05:22:42;19.60;99.90
35690;DHT22;26977;44.830;-0.674;2022-08-20T05:25:08;19.60;99.90
35690;DHT22;26977;44.830;-0.674;2022-08-20T05:27:34;19.60;99.90
35690;DHT22;26977;44.830;-0.674;2022-08-20T05:30:06;19.60;99.90
35690;DHT22;26977;44.830;-0.674;2022-08-20T05:32:33;19.60;99.90
35690;DHT22;26977;44.830;-0.674;2022-08-20T05:35:00;19.70;99.90
35690;DHT22;26977;44.830;-0.674;2022-08-20T05:37:26;19.70;99.90
35690;DHT22;26977;44.830;-0.674;2022-08-20T05:39:54;19.70;99.90
35690;DHT22;26977;44.830;-0.674;2022-08-20T05:42:20;19.80;99.90
35690;DHT22;26977;44.830;-0.674;2022-08-20T05:44:46;19.80;99.90
35690;DHT22;26977;44.830;-0.674;2022-08-20T05:47:12;19.80;99.90
35690;DHT22;26977;44.830;-0.674;2022-08-20T05:49:38;19.90;99.90
35690;DHT22;26977;44.830;-0.674;2022-08-20T05:52:04;20.00;99.90
35690;DHT22;26977;44.830;-0.674;2022-08-20T05:54:31;20.00;99.90
35690;DHT22;26977;44.830;-0.674;2022-08-20T05:56:57;20.10;99.90
35690;DHT22;26977;44.830;-0.674;2022-08-20T05:59:23;20.10;99.90
35690;DHT22;26977;44.830;-0.674;2022-08-20T06:01:50;20.20;99.90
35690;DHT22;26977;44.830;-0.674;2022-08-20T06:04:16;20.20;99.90
35690;DHT22;26977;44.830;-0.674;2022-08-20T06:07:04;20.20;99.90
35690;DHT22;26977;44.830;-0.674;2022-08-20T06:09:30;20.30;99.90
35690;DHT22;26977;44.830;-0.674;2022-08-20T06:11:56;20.40;99.90
35690;DHT22;26977;44.830;-0.674;2022-08-20T06:14:23;20.40;99.90
35690;DHT22;26977;44.830;-0.674;2022-08-20T06:16:50;20.40;99.90
35690;DHT22;26977;44.830;-0.674;2022-08-20T06:19:15;20.40;99.90
35690;DHT22;26977;44.830;-0.674;2022-08-20T06:21:41;20.40;99.90
35690;DHT22;26977;44.830;-0.674;2022-08-20T06:24:07;20.40;99.90
35690;DHT22;26977;44.830;-0.674;2022-08-20T06:26:33;20.50;99.90
35690;DHT22;26977;44.830;-0.674;2022-08-20T06:29:00;20.50;99.90
35690;DHT22;26977;44.830;-0.674;2022-08-20T06:31:26;20.50;99.90
35690;DHT22;26977;44.830;-0.674;2022-08-20T06:33:52;20.60;99.90
35690;DHT22;26977;44.830;-0.674;2022-08-20T06:36:18;20.60;99.90
35690;DHT22;26977;44.830;-0.674;2022-08-20T06:38:44;20.70;99.90
35690;DHT22;26977;44.830;-0.674;2022-08-20T06:41:10;20.70;99.90
35690;DHT22;26977;44.830;-0.674;2022-08-20T06:43:36;20.70;99.90
35690;DHT22;26977;44.830;-0.674;2022-08-20T06:46:02;20.70;99.90
35690;DHT22;26977;44.830;-0.674;2022-08-20T06:48:27;20.80;99.90
35690;DHT22;26977;44.830;-0.674;2022-08-20T06:50:53;20.80;99.90
35690;DHT22;26977;44.830;-0.674;2022-08-20T06:53:20;20.80;99.90
35690;DHT22;26977;44.830;-0.674;2022-08-20T06:55:52;20.90;99.90
35690;DHT22;26977;44.830;-0.674;2022-08-20T06:58:18;21.00;99.90
35690;DHT22;26977;44.830;-0.674;2022-08-20T07:00:45;21.00;99.90
35690;DHT22;26977;44.830;-0.674;2022-08-20T07:03:12;21.10;99.90
35690;DHT22;26977;44.830;-0.674;2022-08-20T07:05:40;21.10;99.90
35690;DHT22;26977;44.830;-0.674;2022-08-20T07:08:12;21.20;99.90
35690;DHT22;26977;44.830;-0.674;2022-08-20T07:10:38;21.20;99.90
35690;DHT22;26977;44.830;-0.674;2022-08-20T07:13:04;21.20;99.90
35690;DHT22;26977;44.830;-0.674;2022-08-20T07:15:30;21.30;99.90
35690;DHT22;26977;44.830;-0.674;2022-08-20T07:18:01;21.20;99.90
35690;DHT22;26977;44.830;-0.674;2022-08-20T07:20:27;21.30;99.90
35690;DHT22;26977;44.830;-0.674;2022-08-20T07:22:53;21.30;99.90
35690;DHT22;26977;44.830;-0.674;2022-08-20T07:25:20;21.20;99.90
35690;DHT22;26977;44.830;-0.674;2022-08-20T07:27:47;21.10;99.90
35690;DHT22;26977;44.830;-0.674;2022-08-20T07:30:23;21.30;99.90
35690;DHT22;26977;44.830;-0.674;2022-08-20T07:33:08;21.30;99.90
35690;DHT22;26977;44.830;-0.674;2022-08-20T07:35:33;21.40;99.90
35690;DHT22;26977;44.830;-0.674;2022-08-20T07:37:59;21.50;99.90
35690;DHT22;26977;44.830;-0.674;2022-08-20T07:40:30;21.60;99.90
35690;DHT22;26977;44.830;-0.674;2022-08-20T07:42:57;21.70;99.90
35690;DHT22;26977;44.830;-0.674;2022-08-20T07:45:25;21.70;99.90
35690;DHT22;26977;44.830;-0.674;2022-08-20T07:47:52;21.70;99.90
35690;DHT22;26977;44.830;-0.674;2022-08-20T07:50:24;21.80;99.90
35690;DHT22;26977;44.830;-0.674;2022-08-20T07:52:50;21.90;99.90
35690;DHT22;26977;44.830;-0.674;2022-08-20T07:55:19;22.00;99.90
35690;DHT22;26977;44.830;-0.674;2022-08-20T07:57:47;22.10;99.90
35690;DHT22;26977;44.830;-0.674;2022-08-20T08:00:15;22.30;99.90
35690;DHT22;26977;44.830;-0.674;2022-08-20T08:02:41;22.30;99.90
35690;DHT22;26977;44.830;-0.674;2022-08-20T08:05:08;22.30;99.90
35690;DHT22;26977;44.830;-0.674;2022-08-20T08:07:34;22.40;99.90
35690;DHT22;26977;44.830;-0.674;2022-08-20T08:10:01;22.40;99.90
35690;DHT22;26977;44.830;-0.674;2022-08-20T08:12:34;22.50;99.90
35690;DHT22;26977;44.830;-0.674;2022-08-20T08:15:02;22.50;99.90
35690;DHT22;26977;44.830;-0.674;2022-08-20T08:17:28;22.50;99.90
35690;DHT22;26977;44.830;-0.674;2022-08-20T08:19:55;22.30;99.90
35690;DHT22;26977;44.830;-0.674;2022-08-20T08:22:21;22.30;99.90
35690;DHT22;26977;44.830;-0.674;2022-08-20T08:24:47;22.50;99.90
35690;DHT22;26977;44.830;-0.674;2022-08-20T08:27:14;22.70;99.90
35690;DHT22;26977;44.830;-0.674;2022-08-20T08:29:43;22.60;99.90
35690;DHT22;26977;44.830;-0.674;2022-08-20T08:32:09;22.60;99.90
35690;DHT22;26977;44.830;-0.674;2022-08-20T08:34:35;22.60;99.90
35690;DHT22;26977;44.830;-0.674;2022-08-20T08:37:02;22.70;99.90
35690;DHT22;26977;44.830;-0.674;2022-08-20T08:39:30;22.90;99.90
35690;DHT22;26977;44.830;-0.674;2022-08-20T08:41:56;22.90;99.90
35690;DHT22;26977;44.830;-0.674;2022-08-20T08:44:29;23.20;99.90
35690;DHT22;26977;44.830;-0.674;2022-08-20T08:47:07;23.40;99.90
35690;DHT22;26977;44.830;-0.674;2022-08-20T08:49:43;23.50;99.90
35690;DHT22;26977;44.830;-0.674;2022-08-20T08:52:22;23.60;99.90
35690;DHT22;26977;44.830;-0.674;2022-08-20T08:54:51;23.60;99.90
35690;DHT22;26977;44.830;-0.674;2022-08-20T08:57:18;23.80;99.90
35690;DHT22;26977;44.830;-0.674;2022-08-20T08:59:46;23.70;99.90
35690;DHT22;26977;44.830;-0.674;2022-08-20T09:02:20;23.60;99.90
35690;DHT22;26977;44.830;-0.674;2022-08-20T09:04:47;23.40;99.90
35690;DHT22;26977;44.830;-0.674;2022-08-20T09:07:16;23.50;99.90
35690;DHT22;26977;44.830;-0.674;2022-08-20T09:09:44;23.40;99.90
35690;DHT22;26977;44.830;-0.674;2022-08-20T09:12:16;23.50;99.90
35690;DHT22;26977;44.830;-0.674;2022-08-20T09:14:43;23.50;99.90
35690;DHT22;26977;44.830;-0.674;2022-08-20T09:17:10;23.70;99.90
35690;DHT22;26977;44.830;-0.674;2022-08-20T09:19:36;23.60;99.90
35690;DHT22;26977;44.830;-0.674;2022-08-20T09:22:10;23.30;99.90
35690;DHT22;26977;44.830;-0.674;2022-08-20T09:24:36;23.40;99.90
35690;DHT22;26977;44.830;-0.674;2022-08-20T09:27:02;23.50;99.90
35690;DHT22;26977;44.830;-0.674;2022-08-20T09:29:28;23.50;99.90
35690;DHT22;26977;44.830;-0.674;2022-08-20T09:32:17;23.60;99.90
35690;DHT22;26977;44.830;-0.674;2022-08-20T09:34:45;23.90;99.40
35690;DHT22;26977;44.830;-0.674;2022-08-20T09:37:11;23.50;99.70
35690;DHT22;26977;44.830;-0.674;2022-08-20T09:39:38;23.70;99.60
35690;DHT22;26977;44.830;-0.674;2022-08-20T09:44:36;24.10;98.70
35690;DHT22;26977;44.830;-0.674;2022-08-20T09:47:02;24.50;98.30
35690;DHT22;26977;44.830;-0.674;2022-08-20T09:49:28;24.60;97.40
35690;DHT22;26977;44.830;-0.674;2022-08-20T09:51:54;24.80;96.90
35690;DHT22;26977;44.830;-0.674;2022-08-20T09:54:21;25.00;96.60
35690;DHT22;26977;44.830;-0.674;2022-08-20T09:56:47;25.20;96.50
35690;DHT22;26977;44.830;-0.674;2022-08-20T09:59:14;25.40;95.70
35690;DHT22;26977;44.830;-0.674;2022-08-20T10:01:40;25.40;95.90
35690;DHT22;26977;44.830;-0.674;2022-08-20T10:04:06;25.40;95.50
35690;DHT22;26977;44.830;-0.674;2022-08-20T10:06:38;25.50;95.40
35690;DHT22;26977;44.830;-0.674;2022-08-20T10:09:04;25.20;94.70
35690;DHT22;26977;44.830;-0.674;2022-08-20T10:11:29;25.00;94.70
35690;DHT22;26977;44.830;-0.674;2022-08-20T10:13:55;24.80;95.30
35690;DHT22;26977;44.830;-0.674;2022-08-20T10:16:21;25.00;95.40
35690;DHT22;26977;44.830;-0.674;2022-08-20T10:18:46;25.20;95.30
35690;DHT22;26977;44.830;-0.674;2022-08-20T10:21:14;25.10;94.20
35690;DHT22;26977;44.830;-0.674;2022-08-20T10:23:40;24.80;94.40
35690;DHT22;26977;44.830;-0.674;2022-08-20T10:26:10;24.60;95.30
35690;DHT22;26977;44.830;-0.674;2022-08-20T10:28:36;24.80;95.50
35690;DHT22;26977;44.830;-0.674;2022-08-20T10:31:05;25.00;95.20
35690;DHT22;26977;44.830;-0.674;2022-08-20T10:33:31;25.20;94.80
35690;DHT22;26977;44.830;-0.674;2022-08-20T10:35:57;25.50;94.20
35690;DHT22;26977;44.830;-0.674;2022-08-20T10:38:29;25.40;94.20
35690;DHT22;26977;44.830;-0.674;2022-08-20T10:40:55;25.50;94.30
35690;DHT22;26977;44.830;-0.674;2022-08-20T10:43:21;25.50;93.80
35690;DHT22;26977;44.830;-0.674;2022-08-20T10:45:46;25.40;94.00
35690;DHT22;26977;44.830;-0.674;2022-08-20T10:48:12;25.50;94.20
35690;DHT22;26977;44.830;-0.674;2022-08-20T10:50:38;25.70;93.60
35690;DHT22;26977;44.830;-0.674;2022-08-20T10:53:04;25.90;93.00
35690;DHT22;26977;44.830;-0.674;2022-08-20T10:55:29;26.00;93.10
35690;DHT22;26977;44.830;-0.674;2022-08-20T10:57:55;26.20;92.40
35690;DHT22;26977;44.830;-0.674;2022-08-20T11:00:21;25.90;92.90
35690;DHT22;26977;44.830;-0.674;2022-08-20T11:02:47;26.10;92.60
35690;DHT22;26977;44.830;-0.674;2022-08-20T11:05:13;26.40;92.60
35690;DHT22;26977;44.830;-0.674;2022-08-20T11:07:40;26.50;92.10
35690;DHT22;26977;44.830;-0.674;2022-08-20T11:10:07;26.30;92.10
35690;DHT22;26977;44.830;-0.674;2022-08-20T11:12:33;26.10;92.20
35690;DHT22;26977;44.830;-0.674;2022-08-20T11:14:59;25.80;92.50
35690;DHT22;26977;44.830;-0.674;2022-08-20T11:17:30;26.10;92.90
35690;DHT22;26977;44.830;-0.674;2022-08-20T11:19:57;26.30;92.40
35690;DHT22;26977;44.830;-0.674;2022-08-20T11:22:23;26.80;91.60
35690;DHT22;26977;44.830;-0.674;2022-08-20T11:24:50;26.90;90.40
35690;DHT22;26977;44.830;-0.674;2022-08-20T11:27:22;26.60;90.60
35690;DHT22;26977;44.830;-0.674;2022-08-20T11:29:48;26.40;91.20
35690;DHT22;26977;44.830;-0.674;2022-08-20T11:32:14;26.30;90.80
35690;DHT22;26977;44.830;-0.674;2022-08-20T11:34:40;26.50;91.60
35690;DHT22;26977;44.830;-0.674;2022-08-20T11:37:05;26.80;91.40
35690;DHT22;26977;44.830;-0.674;2022-08-20T11:39:31;27.20;90.70
35690;DHT22;26977;44.830;-0.674;2022-08-20T11:41:57;27.40;90.10
35690;DHT22;26977;44.830;-0.674;2022-08-20T11:44:22;27.60;88.60
35690;DHT22;26977;44.830;-0.674;2022-08-20T11:46:48;27.60;90.10
35690;DHT22;26977;44.830;-0.674;2022-08-20T11:49:14;27.70;88.10
35690;DHT22;26977;44.830;-0.674;2022-08-20T11:51:40;28.00;88.50
35690;DHT22;26977;44.830;-0.674;2022-08-20T11:54:05;27.60;88.40
35690;DHT22;26977;44.830;-0.674;2022-08-20T11:56:31;27.50;88.80
35690;DHT22;26977;44.830;-0.674;2022-08-20T11:58:57;27.90;88.00
35690;DHT22;26977;44.830;-0.674;2022-08-20T12:01:22;27.40;88.10
35690;DHT22;26977;44.830;-0.674;2022-08-20T12:03:48;27.30;90.00
35690;DHT22;26977;44.830;-0.674;2022-08-20T12:06:14;27.20;90.30
35690;DHT22;26977;44.830;-0.674;2022-08-20T12:08:39;27.00;89.00
35690;DHT22;26977;44.830;-0.674;2022-08-20T12:11:05;26.70;90.00
35690;DHT22;26977;44.830;-0.674;2022-08-20T12:13:34;26.70;89.90
35690;DHT22;26977;44.830;-0.674;2022-08-20T12:16:00;26.90;89.80
35690;DHT22;26977;44.830;-0.674;2022-08-20T12:18:27;27.10;90.20
35690;DHT22;26977;44.830;-0.674;2022-08-20T12:20:52;27.30;89.30
35690;DHT22;26977;44.830;-0.674;2022-08-20T12:23:18;27.50;88.20
35690;DHT22;26977;44.830;-0.674;2022-08-20T12:25:44;27.80;87.30
35690;DHT22;26977;44.830;-0.674;2022-08-20T12:28:12;27.80;87.40
35690;DHT22;26977;44.830;-0.674;2022-08-20T12:30:38;27.90;88.70
35690;DHT22;26977;44.830;-0.674;2022-08-20T12:33:04;27.80;87.00
35690;DHT22;26977;44.830;-0.674;2022-08-20T12:35:30;27.20;90.10
35690;DHT22;26977;44.830;-0.674;2022-08-20T12:37:56;27.80;89.00
35690;DHT22;26977;44.830;-0.674;2022-08-20T12:40:27;28.70;87.50
35690;DHT22;26977;44.830;-0.674;2022-08-20T12:42:53;29.70;84.40
35690;DHT22;26977;44.830;-0.674;2022-08-20T12:45:20;30.20;82.30
35690;DHT22;26977;44.830;-0.674;2022-08-20T12:47:46;29.90;81.50
35690;DHT22;26977;44.830;-0.674;2022-08-20T12:50:22;29.90;82.10
35690;DHT22;26977;44.830;-0.674;2022-08-20T12:52:48;29.90;81.00
35690;DHT22;26977;44.830;-0.674;2022-08-20T12:55:16;30.40;80.80
35690;DHT22;26977;44.830;-0.674;2022-08-20T12:57:48;30.90;78.70
35690;DHT22;26977;44.830;-0.674;2022-08-20T13:00:18;30.10;79.50
35690;DHT22;26977;44.830;-0.674;2022-08-20T13:02:47;29.60;80.80
35690;DHT22;26977;44.830;-0.674;2022-08-20T13:05:13;29.10;83.00
35690;DHT22;26977;44.830;-0.674;2022-08-20T13:07:41;29.00;82.70
35690;DHT22;26977;44.830;-0.674;2022-08-20T13:10:13;28.60;82.90
35690;DHT22;26977;44.830;-0.674;2022-08-20T13:12:39;28.00;83.60
35690;DHT22;26977;44.830;-0.674;2022-08-20T13:15:05;28.30;85.50
35690;DHT22;26977;44.830;-0.674;2022-08-20T13:17:31;29.60;82.70
35690;DHT22;26977;44.830;-0.674;2022-08-20T13:19:57;30.90;78.80
35690;DHT22;26977;44.830;-0.674;2022-08-20T13:22:22;30.00;79.50
35690;DHT22;26977;44.830;-0.674;2022-08-20T13:24:48;30.40;79.70
35690;DHT22;26977;44.830;-0.674;2022-08-20T13:27:16;30.80;77.10
35690;DHT22;26977;44.830;-0.674;2022-08-20T13:29:47;31.70;77.70
35690;DHT22;26977;44.830;-0.674;2022-08-20T13:32:13;32.00;75.10
35690;DHT22;26977;44.830;-0.674;2022-08-20T13:34:39;31.50;77.10
35690;DHT22;26977;44.830;-0.674;2022-08-20T13:37:16;32.60;75.50
35690;DHT22;26977;44.830;-0.674;2022-08-20T13:39:42;33.70;72.40
35690;DHT22;26977;44.830;-0.674;2022-08-20T13:42:09;34.40;71.60
35690;DHT22;26977;44.830;-0.674;2022-08-20T13:44:36;35.20;70.80
35690;DHT22;26977;44.830;-0.674;2022-08-20T13:47:27;35.00;69.90
35690;DHT22;26977;44.830;-0.674;2022-08-20T13:50:01;34.40;69.90
35690;DHT22;26977;44.830;-0.674;2022-08-20T13:52:29;35.10;69.30
35690;DHT22;26977;44.830;-0.674;2022-08-20T13:54:55;35.30;67.80
35690;DHT22;26977;44.830;-0.674;2022-08-20T13:57:22;34.70;69.20
35690;DHT22;26977;44.830;-0.674;2022-08-20T13:59:50;34.10;69.90
35690;DHT22;26977;44.830;-0.674;2022-08-20T14:02:17;33.30;70.60
35690;DHT22;26977;44.830;-0.674;2022-08-20T14:04:43;33.40;71.60
35690;DHT22;26977;44.830;-0.674;2022-08-20T14:07:18;33.70;70.60
35690;DHT22;26977;44.830;-0.674;2022-08-20T14:09:48;33.20;70.20
35690;DHT22;26977;44.830;-0.674;2022-08-20T14:12:14;31.80;72.50
35690;DHT22;26977;44.830;-0.674;2022-08-20T14:14:40;30.00;76.20
35690;DHT22;26977;44.830;-0.674;2022-08-20T14:17:17;30.00;77.10
35690;DHT22;26977;44.830;-0.674;2022-08-20T14:19:45;30.00;76.30
35690;DHT22;26977;44.830;-0.674;2022-08-20T14:22:11;29.70;77.20
35690;DHT22;26977;44.830;-0.674;2022-08-20T14:24:37;29.50;76.90
35690;DHT22;26977;44.830;-0.674;2022-08-20T14:27:04;29.40;78.10
35690;DHT22;26977;44.830;-0.674;2022-08-20T14:29:32;29.80;77.40
35690;DHT22;26977;44.830;-0.674;2022-08-20T14:31:58;29.70;77.70
35690;DHT22;26977;44.830;-0.674;2022-08-20T14:34:23;29.60;77.60
35690;DHT22;26977;44.830;-0.674;2022-08-20T14:36:49;29.60;78.40
35690;DHT22;26977;44.830;-0.674;2022-08-20T14:39:14;29.30;79.50
35690;DHT22;26977;44.830;-0.674;2022-08-20T14:41:41;30.00;78.40
35690;DHT22;26977;44.830;-0.674;2022-08-20T14:44:06;30.20;77.90
35690;DHT22;26977;44.830;-0.674;2022-08-20T14:46:32;30.50;77.20
35690;DHT22;26977;44.830;-0.674;2022-08-20T14:48:57;31.10;75.80
35690;DHT22;26977;44.830;-0.674;2022-08-20T14:51:23;31.70;75.40
35690;DHT22;26977;44.830;-0.674;2022-08-20T14:53:49;32.80;73.70
35690;DHT22;26977;44.830;-0.674;2022-08-20T14:56:15;34.20;71.80
35690;DHT22;26977;44.830;-0.674;2022-08-20T14:58:42;34.90;69.80
35690;DHT22;26977;44.830;-0.674;2022-08-20T15:01:08;34.40;69.20
35690;DHT22;26977;44.830;-0.674;2022-08-20T15:03:34;34.60;70.10
35690;DHT22;26977;44.830;-0.674;2022-08-20T15:05:59;35.20;67.90
35690;DHT22;26977;44.830;-0.674;2022-08-20T15:08:25;35.80;67.50
35690;DHT22;26977;44.830;-0.674;2022-08-20T15:10:51;36.20;67.00
35690;DHT22;26977;44.830;-0.674;2022-08-20T15:13:16;36.20;65.80
35690;DHT22;26977;44.830;-0.674;2022-08-20T15:15:43;35.80;66.90
35690;DHT22;26977;44.830;-0.674;2022-08-20T15:18:09;34.90;67.50
35690;DHT22;26977;44.830;-0.674;2022-08-20T15:20:35;34.80;68.10
35690;DHT22;26977;44.830;-0.674;2022-08-20T15:23:02;34.80;68.90
35690;DHT22;26977;44.830;-0.674;2022-08-20T15:25:30;34.60;68.70